createdAt,value
2023-03-24T00:03:49.075Z,8.88
2023-03-24T00:09:51.703Z,8.95
2023-03-24T00:15:54.668Z,5.00
2023-03-24T00:22:01.066Z,6.38
2023-03-24T00:28:07.874Z,8.25
2023-03-24T00:34:13.839Z,7.97
2023-03-24T00:40:18.313Z,7.10
2023-03-24T00:46:29.622Z,7.00
2023-03-24T00:52:34.102Z,9.20
2023-03-24T00:58:36.267Z,6.50
2023-03-24T01:04:39.710Z,8.73
2023-03-24T01:10:53.274Z,7.30
2023-03-24T01:16:55.076Z,10.05
2023-03-24T01:22:56.869Z,7.70
2023-03-24T01:28:58.640Z,8.88
2023-03-24T01:35:00.580Z,9.18
2023-03-24T01:41:03.130Z,7.50
2023-03-24T01:47:08.429Z,7.93
2023-03-24T01:53:10.732Z,6.47
2023-03-24T01:59:17.947Z,7.20
2023-03-24T02:05:36.981Z,8.13
2023-03-24T02:11:40.694Z,11.52
2023-03-24T02:18:02.973Z,7.25
2023-03-24T02:24:33.906Z,6.85
2023-03-24T02:31:01.261Z,7.47
2023-03-24T02:37:36.526Z,6.20
2023-03-24T02:44:01.652Z,7.95
2023-03-24T02:50:32.553Z,6.05
2023-03-24T02:56:42.910Z,5.22
2023-03-24T03:03:23.078Z,6.78
2023-03-24T03:09:27.897Z,5.03
2023-03-24T03:15:37.415Z,8.93
2023-03-24T03:21:43.447Z,6.00
2023-03-24T03:27:46.841Z,7.65
2023-03-24T03:34:19.086Z,8.25
2023-03-24T03:40:43.061Z,5.10
2023-03-24T03:46:53.473Z,5.15
2023-03-24T03:53:03.642Z,7.78
2023-03-24T03:59:07.064Z,7.63
2023-03-24T04:05:35.812Z,9.80
2023-03-24T04:11:59.599Z,7.45
2023-03-24T04:18:25.699Z,9.05
2023-03-24T04:25:00.103Z,7.32
2023-03-24T04:31:19.082Z,9.20
2023-03-24T04:37:38.276Z,9.65
2023-03-24T04:43:49.043Z,9.10
2023-03-24T04:49:51.154Z,8.93
2023-03-24T04:55:58.384Z,8.85
2023-03-24T05:02:21.872Z,8.43
2023-03-24T05:08:34.028Z,10.63
2023-03-24T05:14:36.272Z,13.23
2023-03-24T05:20:40.541Z,11.48
2023-03-24T05:26:50.017Z,9.68
2023-03-24T05:32:54.609Z,11.35
2023-03-24T05:38:56.553Z,10.93
2023-03-24T05:45:06.539Z,10.32
2023-03-24T05:51:09.439Z,10.05
2023-03-24T05:57:14.506Z,13.73
2023-03-24T06:03:49.100Z,9.70
2023-03-24T06:09:52.657Z,8.73
2023-03-24T06:15:59.346Z,9.13
2023-03-24T06:22:10.399Z,9.15
2023-03-24T06:28:14.201Z,10.45
2023-03-24T06:34:18.994Z,9.48
2023-03-24T06:40:35.168Z,9.18
2023-03-24T06:46:38.608Z,10.23
2023-03-24T06:52:41.923Z,9.43
2023-03-24T06:58:47.269Z,12.80
2023-03-24T07:05:01.083Z,10.60
2023-03-24T07:11:14.664Z,11.45
2023-03-24T07:17:25.315Z,11.07
2023-03-24T07:23:59.661Z,14.90
2023-03-24T07:30:09.484Z,7.72
2023-03-24T07:36:15.017Z,4.78
2023-03-24T07:42:16.987Z,6.10
2023-03-24T07:48:38.908Z,5.05
2023-03-24T07:54:40.932Z,5.28
2023-03-24T08:00:43.291Z,4.93
2023-03-24T08:07:01.828Z,5.95
2023-03-24T08:13:04.696Z,5.57
2023-03-24T08:19:06.674Z,6.03
2023-03-24T08:25:11.245Z,6.28
2023-03-24T08:31:13.249Z,3.72
2023-03-24T08:37:15.100Z,4.13
2023-03-24T08:43:17.539Z,7.03
2023-03-24T08:49:19.391Z,7.05
2023-03-24T08:55:25.571Z,6.07
2023-03-24T09:01:27.521Z,5.10
2023-03-24T09:07:29.351Z,6.78
2023-03-24T09:13:31.304Z,5.32
2023-03-24T09:19:34.121Z,6.20
2023-03-24T09:25:35.975Z,4.47
2023-03-24T09:31:37.824Z,6.38
2023-03-24T09:37:39.840Z,4.35
2023-03-24T09:43:46.704Z,6.00
2023-03-24T09:49:49.330Z,4.07
2023-03-24T09:55:51.399Z,4.47
2023-03-24T10:01:53.558Z,5.60
2023-03-24T10:08:09.231Z,5.47
2023-03-24T10:14:18.383Z,5.85
2023-03-24T10:20:30.791Z,7.20
2023-03-24T10:26:53.827Z,4.88
2023-03-24T10:32:56.070Z,6.68
2023-03-24T10:39:01.851Z,4.00
2023-03-24T10:45:14.111Z,6.28
2023-03-24T10:51:27.488Z,5.25
2023-03-24T10:57:30.620Z,6.03
2023-03-24T11:03:36.517Z,6.25
2023-03-24T11:09:43.405Z,5.45
2023-03-24T11:16:07.402Z,6.60
2023-03-24T11:22:11.563Z,4.35
2023-03-24T11:28:21.133Z,7.65
2023-03-24T11:34:34.309Z,5.75
2023-03-24T11:40:36.274Z,3.88
2023-03-24T11:46:41.061Z,3.78
2023-03-24T11:53:20.448Z,7.35
2023-03-24T12:00:00.048Z,6.13
2023-03-24T12:06:24.447Z,7.55
2023-03-24T12:13:01.987Z,7.15
2023-03-24T12:19:39.693Z,7.68
2023-03-24T12:26:10.972Z,9.45
2023-03-24T12:32:25.916Z,8.55
2023-03-24T12:38:58.009Z,10.57
2023-03-24T12:45:18.571Z,6.32
2023-03-24T12:51:51.728Z,7.43
2023-03-24T12:58:11.267Z,6.18
2023-03-24T13:04:24.485Z,5.43
2023-03-24T13:10:33.037Z,6.20
2023-03-24T13:16:37.895Z,4.43
2023-03-24T13:22:40.974Z,8.20
2023-03-24T13:29:03.987Z,11.27
2023-03-24T13:35:21.734Z,9.30
2023-03-24T13:41:27.239Z,6.22
2023-03-24T13:47:55.927Z,6.20
2023-03-24T13:54:15.728Z,5.60
2023-03-24T14:00:21.047Z,8.80
2023-03-24T14:06:50.266Z,6.13
2023-03-24T14:12:55.658Z,8.38
2023-03-24T14:19:19.518Z,6.47
2023-03-24T14:25:27.217Z,6.85
2023-03-24T14:31:34.305Z,6.63
2023-03-24T14:37:37.329Z,8.50
2023-03-24T14:43:39.095Z,8.68
2023-03-24T14:49:44.719Z,8.18
2023-03-24T14:55:48.448Z,11.45
2023-03-24T15:01:55.354Z,8.25
2023-03-24T15:08:23.661Z,8.93
2023-03-24T15:14:26.254Z,9.32
2023-03-24T15:20:35.186Z,8.65
2023-03-24T15:26:37.577Z,6.85
2023-03-24T15:32:40.340Z,8.50
2023-03-24T15:38:48.102Z,5.50
2023-03-24T15:44:51.303Z,8.43
2023-03-24T15:51:11.624Z,6.63
2023-03-24T15:57:24.070Z,10.48
2023-03-24T16:03:27.079Z,5.90
2023-03-24T16:09:40.990Z,6.72
2023-03-24T16:15:48.813Z,7.53
2023-03-24T16:21:50.942Z,8.88
2023-03-24T16:27:52.712Z,6.75
2023-03-24T16:33:56.638Z,8.18
2023-03-24T16:40:01.710Z,10.27
2023-03-24T16:46:05.846Z,7.65
2023-03-24T16:52:15.809Z,8.85
2023-03-24T16:58:18.225Z,5.03
2023-03-24T17:04:22.281Z,6.40
2023-03-24T17:10:28.033Z,6.57
2023-03-24T17:16:30.437Z,9.60
2023-03-24T17:22:35.076Z,6.63
2023-03-24T17:28:36.833Z,8.10
2023-03-24T17:34:38.615Z,7.00
2023-03-24T17:40:41.081Z,6.45
2023-03-24T17:46:42.910Z,2.42
2023-03-24T17:52:49.144Z,5.57
2023-03-24T17:58:54.678Z,5.38
2023-03-24T18:04:56.961Z,5.50
2023-03-24T18:11:07.551Z,3.25
2023-03-24T18:17:09.509Z,2.58
2023-03-24T18:23:11.571Z,7.18
2023-03-24T18:29:13.616Z,4.13
2023-03-24T18:35:16.372Z,6.28
2023-03-24T18:41:18.732Z,6.05
2023-03-24T18:47:20.585Z,6.50
2023-03-24T18:53:22.778Z,6.28
2023-03-24T18:59:24.870Z,5.32
2023-03-24T19:05:26.909Z,6.50
2023-03-24T19:11:28.689Z,4.85
2023-03-24T19:17:30.863Z,8.80
2023-03-24T19:23:33.476Z,4.00
2023-03-24T19:29:35.552Z,5.25
2023-03-24T19:35:37.356Z,5.80
2023-03-24T19:41:40.516Z,9.07
2023-03-24T19:47:43.579Z,7.80
2023-03-24T19:53:45.445Z,5.50
2023-03-24T19:59:47.584Z,5.78
2023-03-24T20:05:50.177Z,8.00
2023-03-24T20:11:53.220Z,7.43
2023-03-24T20:17:55.172Z,5.15
2023-03-24T20:23:56.982Z,5.25
2023-03-24T20:29:58.766Z,5.45
2023-03-24T20:36:01.058Z,2.42
2023-03-24T20:42:03.014Z,2.55
2023-03-24T20:48:04.834Z,2.00
2023-03-24T20:54:08.109Z,2.25
2023-03-24T21:00:14.174Z,2.45
2023-03-24T21:06:17.666Z,2.80
2023-03-24T21:12:19.442Z,2.80
2023-03-24T21:18:21.207Z,5.35
2023-03-24T21:24:24.119Z,2.17
2023-03-24T21:30:27.750Z,0.63
2023-03-24T21:36:31.013Z,3.22
2023-03-24T21:42:34.725Z,6.90
2023-03-24T21:48:40.120Z,1.80
2023-03-24T21:54:43.574Z,2.90
2023-03-24T22:00:46.761Z,3.22
2023-03-24T22:06:48.604Z,2.03
2023-03-24T22:12:52.115Z,3.38
2023-03-24T22:18:54.198Z,1.05
2023-03-24T22:24:58.705Z,2.40
2023-03-24T22:31:05.742Z,2.83
2023-03-24T22:37:07.688Z,1.33
2023-03-24T22:43:10.333Z,1.02
2023-03-24T22:49:12.118Z,2.03
2023-03-24T22:55:13.900Z,1.83
2023-03-24T23:01:16.369Z,1.73
2023-03-24T23:07:18.243Z,1.67
2023-03-24T23:13:20.164Z,3.95
2023-03-24T23:19:23.182Z,5.07
2023-03-24T23:25:25.954Z,5.20
2023-03-24T23:31:28.379Z,3.28
2023-03-24T23:37:32.152Z,2.72
2023-03-24T23:43:34.324Z,4.40
2023-03-24T23:49:36.125Z,5.93
2023-03-24T23:55:38.297Z,4.07
